Daily Tabular Data
[Select Refresh to Update]


8/17/18
Time         Wind Dir   Wind Spd  Wind Gust     Hum In   Humidity    Temp In       Temp  Raw Barom   Tot Rain Wind Chill Heat Ix In Heat Index  Dew Point  DailyRain   HourRain   RainRate
                            mph        mph          %          %         F         F         in         in         F         F         F         F         in         in      in/hr
12:00am           171          0          0         62         88       77.8       70.0      29.20       0.00       70.0       79.8       75.3       66.3       0.00       0.00      0.000
12:30am           177          0          4         62         88       77.7       70.0      29.20       0.00       70.0       79.7       75.3       66.3       0.00       0.00      0.000
1:00am            182          0          1         63         89       77.5       69.9      29.19       0.00       69.9       79.6       75.4       66.5       0.00       0.00      0.000
1:30am            175          0          3         63         89       77.4       69.9      29.19       0.00       69.9       79.5       75.4       66.5       0.00       0.00      0.000
2:00am            163          0          0         63         89       77.3       69.9      29.18       0.00       69.9       79.4       75.4       66.5       0.00       0.00      0.000
2:30am            164          0          0         63         90       77.1       69.5      29.17       0.00       69.5       79.2       75.1       66.4       0.00       0.00      0.000
3:00am            292          0          0         64         89       77.1       69.6      29.17       0.00       69.6       79.4       75.1       66.2       0.00       0.00      0.000
3:30am            286          0          0         64         90       76.9       69.3      29.17       0.00       69.3       79.2       74.9       66.2       0.00       0.00      0.000
4:00am            286          0          0         64         91       76.8       69.2      29.17       0.00       69.2       79.1       75.0       66.5       0.00       0.00      0.000
4:30am             12          0          5         64         90       76.7       69.6      29.17       0.00       69.6       79.0       75.2       66.5       0.00       0.00      0.000
5:00am            333          0          4         65         90       76.7       69.6      29.17       0.00       69.6       79.1       75.2       66.5       0.00       0.00      0.000
5:30am            332          0          0         65         90       76.7       69.8      29.17       0.00       69.8       79.1       75.4       66.7       0.00       0.00      0.000
6:00am            331          0          0         65         89       76.7       69.8      29.17       0.00       69.8       79.1       75.3       66.4       0.00       0.00      0.000
6:30am            326          0          3         65         89       76.6       69.9      29.18       0.00       69.9       79.0       75.4       66.5       0.00       0.00      0.000
7:00am            205          0          0         65         89       76.7       70.1      29.19       0.00       70.1       79.1       75.6       66.7       0.00       0.00      0.000
7:30am            148          0          2         64         88       77.0       70.8      29.20       0.00       70.8       79.3       76.1       67.1       0.00       0.00      0.000
8:00am            315          0          0         64         86       77.2       71.7      29.21       0.00       71.7       79.5       76.8       67.3       0.00       0.00      0.000
8:30am            324          0          1         64         84       77.4       73.1      29.20       0.00       73.1       79.7       77.9       68.0       0.00       0.00      0.000
9:00am            342          3          3         63         81       77.8       74.2      29.21       0.00       74.2       79.9       78.6       68.0       0.00       0.00      0.000
9:30am            182          0          8         62         82       78.0       76.9      29.21       0.00       76.9       80.0       81.4       71.0       0.00       0.00      0.000
10:00am           259          0          3         61         74       78.2       80.2      29.20       0.00       80.2       80.1       83.8       71.2       0.00       0.00      0.000
10:30am           351          2          7         62         70       78.4       79.5      29.20       0.00       79.5       80.4       82.5       68.9       0.00       0.00      0.000
11:00am           350          0          4         61         68       78.5       81.3      29.20       0.00       81.3       80.4       84.8       69.7       0.00       0.00      0.000
11:30am            83          0          3         61         63       78.7       84.1      29.19       0.00       84.1       80.6       88.5       70.2       0.00       0.00      0.000
12:00pm           338          0          5         61         60       78.9       85.7      29.18       0.00       85.7       80.8       90.5       70.2       0.00       0.00      0.000
12:30pm            17          3         10         61         58       79.2       86.5      29.17       0.00       86.5       81.1       91.3       70.0       0.00       0.00      0.000
1:00pm            286          2         12         60         58       79.4       87.2      29.16       0.00       87.2       81.2       92.7       70.6       0.00       0.00      0.000
1:30pm            348          4         11         55         60       79.3       85.9      29.17       0.00       85.9       80.6       90.9       70.4       0.00       0.00      0.000
2:00pm            308          3         12         52         61       78.3       84.7      29.16       0.00       84.7       79.3       89.0       69.8       0.00       0.00      0.000
2:30pm            327          6         11         53         60       78.1       85.5      29.16       0.00       85.5       79.2       90.2       70.0       0.00       0.00      0.000
3:00pm            308          2         11         54         60       79.1       85.3      29.15       0.00       85.3       80.3       89.8       69.9       0.00       0.00      0.000
3:30pm            297          0          9         53         56       79.4       86.9      29.14       0.00       86.9       80.5       91.3       69.3       0.00       0.00      0.000
4:00pm            355          4         11         54         57       79.7       86.5      29.14       0.00       86.5       80.9       91.0       69.5       0.00       0.00      0.000
4:30pm            333          3          9         50         59       79.3       86.2      29.13       0.00       86.2       80.1       91.1       70.2       0.00       0.00      0.000
5:00pm             12          2         12         49         62       78.7       84.4      29.13       0.00       84.4       79.4       88.8       70.0       0.00       0.00      0.000
5:30pm            326          1          8         47         62       78.4       84.9      29.13       0.00       84.9       78.9       89.7       70.4       0.00       0.00      0.000
6:00pm            325          3          9         46         64       78.2       83.3      29.13       0.00       83.3       78.6       87.4       69.9       0.00       0.00      0.000
6:30pm            317          2          9         46         70       77.9       80.6      29.13       0.00       80.6       78.3       83.9       69.9       0.00       0.00      0.000
7:00pm            332          2          6         49         73       78.1       78.5      29.14       0.00       78.5       78.8       81.8       69.1       0.00       0.00      0.000
7:30pm            336          0          6         47         78       78.0       76.1      29.15       0.00       76.1       78.5       80.1       68.7       0.00       0.00      0.000
8:00pm            319          0          4         60         81       78.8       74.3      29.15       0.00       74.3       80.6       78.7       68.1       0.00       0.00      0.000
8:30pm            290          0          2         61         83       79.5       73.5      29.16       0.00       73.5       81.4       78.1       68.0       0.00       0.00      0.000
9:00pm            205          2          5         62         85       79.4       73.4      29.17       0.00       73.4       81.4       78.3       68.6       0.00       0.00      0.000
9:30pm            163          0          4         64         87       79.2       72.8      29.18       0.00       72.8       81.5       78.0       68.7       0.00       0.00      0.000
10:00pm           181          0          5         64         88       79.2       72.2      29.19       0.00       72.2       81.5       77.5       68.5       0.00       0.00      0.000
10:30pm           256          0          2         64         89       79.0       71.8      29.19       0.00       71.8       81.3       77.3       68.4       0.00       0.00      0.000
11:00pm           337          0          1         64         89       78.7       71.4      29.19       0.00       71.4       81.0       76.9       68.0       0.00       0.00      0.000
11:30pm           240          0          2         64         89       78.5       71.7      29.19       0.00       71.7       80.8       77.2       68.3       0.00       0.00      0.000